Time;durP1;ratioP1;P1;durP2;ratioP2;P2;SDS_P1;SDS_P2;PMS_P1;PMS_P2;Temp;Humidity;BMP_temperature;BMP_pressure;BME280_temperature;BME280_humidity;BME280_pressure;Samples;Min_cycle;Max_cycle;Signal;HPM_P1;HPM_P2
2022/04/05 00:02:25;;;;;;;1.35;1.08;;;5.50;89.00;;;;;;5052534;28;20031;-72
2022/04/05 00:04:50;;;;;;;0.80;0.80;;;5.50;89.60;;;;;;5052591;28;20392;-73
2022/04/05 00:07:16;;;;;;;11.50;3.55;;;5.50;89.80;;;;;;5051095;28;20029;-73
2022/04/05 00:09:42;;;;;;;0.88;0.88;;;5.40;90.10;;;;;;5052161;28;20033;-72
2022/04/05 00:12:08;;;;;;;5.22;2.25;;;5.30;90.20;;;;;;5051197;28;20021;-72
2022/04/05 00:14:34;;;;;;;3.85;1.65;;;5.30;90.30;;;;;;5052414;28;20052;-72
2022/04/05 00:17:00;;;;;;;3.40;1.75;;;5.30;90.50;;;;;;5052148;28;20029;-72
2022/04/05 00:19:26;;;;;;;4.30;2.85;;;5.30;90.60;;;;;;5052288;28;20499;-72
2022/04/05 00:21:54;;;;;;;4.53;2.22;;;5.30;90.60;;;;;;5052239;28;20500;-72
2022/04/05 00:24:20;;;;;;;0.50;0.50;;;5.30;90.60;;;;;;5052348;28;20089;-72
2022/04/05 00:26:46;;;;;;;0.65;0.65;;;5.30;90.90;;;;;;5051977;28;20031;-72
2022/04/05 00:29:12;;;;;;;5.68;1.40;;;5.30;91.00;;;;;;5052252;28;20409;-72
2022/04/05 00:31:38;;;;;;;3.88;2.70;;;5.20;91.10;;;;;;5050701;28;20049;-72
2022/04/05 00:34:04;;;;;;;4.97;0.60;;;5.20;90.90;;;;;;5052005;28;20104;-72
2022/04/05 00:36:29;;;;;;;5.90;2.72;;;5.20;90.90;;;;;;5051781;28;20051;-72
2022/04/05 00:38:55;;;;;;;7.95;3.78;;;5.20;90.80;;;;;;5052224;28;20057;-72
2022/04/05 00:41:21;;;;;;;1.60;1.50;;;5.30;90.60;;;;;;5052018;28;20542;-72
2022/04/05 00:43:47;;;;;;;7.43;3.60;;;5.30;90.40;;;;;;5052001;28;20029;-72
2022/04/05 00:46:12;;;;;;;0.45;0.45;;;5.30;90.40;;;;;;5051854;28;20029;-72
2022/04/05 00:48:49;;;;;;;1.55;1.45;;;5.30;90.50;;;;;;5052034;28;20032;-72
2022/04/05 00:51:16;;;;;;;3.00;2.10;;;5.30;90.30;;;;;;5051922;28;20033;-72
2022/04/05 00:53:45;;;;;;;0.25;0.25;;;5.30;90.30;;;;;;5051954;28;20017;-73
2022/04/05 00:56:13;;;;;;;1.17;0.75;;;5.40;90.10;;;;;;5051481;28;20496;-72
2022/04/05 00:58:41;;;;;;;12.27;6.45;;;5.40;90.10;;;;;;5051825;28;20082;-72
2022/04/05 01:01:09;;;;;;;3.72;1.65;;;5.40;89.90;;;;;;5051653;28;20478;-72
2022/04/05 01:03:36;;;;;;;1.25;1.15;;;5.40;90.10;;;;;;5050570;28;20059;-72
2022/04/05 01:06:04;;;;;;;0.80;0.80;;;5.40;90.10;;;;;;5051601;28;20021;-72
2022/04/05 01:08:31;;;;;;;2.92;2.63;;;5.40;90.10;;;;;;5051917;28;20488;-73
2022/04/05 01:10:59;;;;;;;4.75;3.35;;;5.30;90.10;;;;;;5033760;28;20031;-71
2022/04/05 01:13:25;;;;;;;8.25;3.60;;;5.30;90.10;;;;;;5050458;28;20388;-71
2022/04/05 01:15:50;;;;;;;6.43;2.25;;;5.40;90.00;;;;;;5051274;28;20021;-71
2022/04/05 01:18:17;;;;;;;8.77;2.47;;;5.50;90.10;;;;;;5051677;28;20079;-71
2022/04/05 01:20:43;;;;;;;34.97;3.40;;;5.50;90.20;;;;;;5051643;28;20029;-71
2022/04/05 01:23:09;;;;;;;0.20;0.20;;;5.50;89.80;;;;;;5050502;28;20119;-71
2022/04/05 01:25:35;;;;;;;6.07;1.95;;;5.40;90.10;;;;;;5050023;28;20065;-70
2022/04/05 01:28:01;;;;;;;0.30;0.30;;;5.40;90.20;;;;;;5051603;28;20128;-73
2022/04/05 01:30:26;;;;;;;1.80;1.67;;;5.50;90.30;;;;;;5051551;28;20040;-71
2022/04/05 01:32:57;;;;;;;0.90;0.90;;;5.40;90.20;;;;;;5033670;28;20033;-71
2022/04/05 01:35:22;;;;;;;0.30;0.30;;;5.40;90.40;;;;;;5051424;28;20028;-71
2022/04/05 01:37:48;;;;;;;9.45;2.80;;;5.30;90.70;;;;;;5051256;28;20021;-71
2022/04/05 01:40:14;;;;;;;3.85;1.63;;;5.40;91.10;;;;;;5050188;28;20116;-71
2022/04/05 01:42:40;;;;;;;9.45;4.20;;;5.30;91.90;;;;;;5052999;28;20028;-71
2022/04/05 01:45:06;;;;;;;12.88;4.70;;;5.20;92.10;;;;;;5055249;28;20475;-71
2022/04/05 01:47:32;;;;;;;1.63;1.52;;;5.20;92.70;;;;;;5053807;28;20021;-71
2022/04/05 01:49:58;;;;;;;8.60;5.03;;;5.10;92.80;;;;;;5055158;28;20129;-71
2022/04/05 01:52:24;;;;;;;1.73;1.52;;;5.10;93.10;;;;;;5055110;28;20614;-71
2022/04/05 01:54:50;;;;;;;5.22;2.78;;;5.00;93.60;;;;;;5055192;28;20349;-71
2022/04/05 01:57:15;;;;;;;4.63;2.67;;;5.10;94.20;;;;;;5053473;28;20036;-72
2022/04/05 01:59:41;;;;;;;1.85;1.40;;;5.00;94.10;;;;;;5054935;28;20125;-72
2022/04/05 02:02:10;;;;;;;0.50;0.50;;;5.00;94.40;;;;;;5054864;28;20016;-72
2022/04/05 02:04:36;;;;;;;9.65;5.70;;;5.10;94.60;;;;;;5055036;28;20086;-72
2022/04/05 02:07:17;;;;;;;4.72;2.28;;;5.10;94.20;;;;;;5053367;28;20090;-72
2022/04/05 02:09:43;;;;;;;6.13;2.85;;;5.10;94.30;;;;;;5061438;22;20037;-73
2022/04/05 02:12:10;;;;;;;3.58;2.40;;;5.10;94.60;;;;;;5034834;28;20546;-73
2022/04/05 02:14:37;;;;;;;7.57;5.10;;;5.00;94.40;;;;;;5033605;28;20503;-73
2022/04/05 02:17:04;;;;;;;5.78;2.70;;;4.90;94.60;;;;;;5034888;28;20424;-73
2022/04/05 02:19:30;;;;;;;1.55;1.20;;;4.90;95.10;;;;;;5034709;28;20021;-73
2022/04/05 02:21:55;;;;;;;6.03;3.55;;;4.90;95.00;;;;;;5034669;28;20013;-74
2022/04/05 02:24:22;;;;;;;1.52;1.42;;;4.90;95.00;;;;;;5034754;28;20049;-74
2022/04/05 02:26:48;;;;;;;8.88;3.85;;;5.00;94.70;;;;;;5034513;28;20399;-73
2022/04/05 02:29:15;;;;;;;4.40;2.60;;;5.00;94.70;;;;;;5033516;28;20108;-73
2022/04/05 02:31:41;;;;;;;0.20;0.20;;;5.00;94.70;;;;;;5033375;28;20388;-73
2022/04/05 02:34:08;;;;;;;3.95;2.75;;;5.00;94.50;;;;;;5033681;28;20032;-73
2022/04/05 02:36:34;;;;;;;2.08;1.77;;;5.00;94.00;;;;;;5034065;28;20105;-73
2022/04/05 02:39:00;;;;;;;0.60;0.60;;;5.10;94.10;;;;;;5034488;28;20525;-73
2022/04/05 02:41:27;;;;;;;1.85;1.75;;;5.20;94.00;;;;;;5034348;28;20033;-73
2022/04/05 02:43:53;;;;;;;5.97;3.25;;;5.10;93.70;;;;;;5034239;28;20515;-74
2022/04/05 02:46:19;;;;;;;5.25;2.40;;;5.10;93.60;;;;;;5034073;28;20499;-73
2022/04/05 02:48:46;;;;;;;0.32;0.32;;;5.10;93.60;;;;;;5034239;28;20543;-73
2022/04/05 02:51:13;;;;;;;8.55;2.88;;;5.20;93.40;;;;;;5033028;28;20091;-73
2022/04/05 02:53:40;;;;;;;8.82;3.70;;;5.20;93.30;;;;;;5032785;28;20029;-73
2022/04/05 02:56:07;;;;;;;2.83;1.55;;;5.20;93.00;;;;;;5032586;28;20030;-73
2022/04/05 02:58:37;;;;;;;0.60;0.60;;;5.20;92.70;;;;;;5034047;28;20021;-73
2022/04/05 03:01:04;;;;;;;1.38;0.88;;;5.20;92.90;;;;;;5032847;28;20025;-73
2022/04/05 03:03:30;;;;;;;1.27;1.15;;;5.40;92.70;;;;;;5032675;28;20392;-73
2022/04/05 03:05:56;;;;;;;2.83;1.75;;;5.30;92.70;;;;;;5033841;28;20531;-73
2022/04/05 03:08:22;;;;;;;11.90;3.95;;;5.20;92.80;;;;;;5033844;28;20030;-73
2022/04/05 03:10:48;;;;;;;0.50;0.50;;;5.20;92.80;;;;;;5033748;28;20032;-73
2022/04/05 03:13:14;;;;;;;4.50;3.35;;;5.10;93.00;;;;;;5033756;28;20435;-73
2022/04/05 03:15:40;;;;;;;0.47;0.47;;;5.10;92.60;;;;;;5033695;28;20029;-73
2022/04/05 03:18:05;;;;;;;0.40;0.40;;;5.10;92.90;;;;;;5032481;28;20057;-73
2022/04/05 03:20:31;;;;;;;1.80;1.25;;;5.20;93.10;;;;;;5033724;28;20075;-73
2022/04/05 03:23:00;;;;;;;7.30;3.35;;;5.20;92.70;;;;;;5033519;28;20064;-73
2022/04/05 03:25:27;;;;;;;2.60;2.10;;;5.20;92.30;;;;;;5032220;28;20048;-74
2022/04/05 03:27:53;;;;;;;2.33;1.33;;;5.20;93.00;;;;;;5032147;28;20029;-73
2022/04/05 03:30:21;;;;;;;2.40;2.30;;;5.20;93.10;;;;;;5033483;28;20488;-73
2022/04/05 03:32:47;;;;;;;2.97;1.00;;;5.20;93.30;;;;;;5015687;28;20393;-73
2022/04/05 03:35:13;;;;;;;0.50;0.50;;;5.30;93.40;;;;;;5033055;28;20091;-73
2022/04/05 03:37:39;;;;;;;0.85;0.63;;;5.30;92.90;;;;;;5032065;28;20556;-74
2022/04/05 03:40:06;;;;;;;2.10;1.25;;;5.30;92.80;;;;;;5031992;28;20049;-73
2022/04/05 03:42:32;;;;;;;2.50;2.10;;;5.20;92.80;;;;;;5015441;28;20022;-74
2022/04/05 03:44:58;;;;;;;3.45;2.08;;;5.20;92.70;;;;;;5031675;28;20032;-73
2022/04/05 03:47:26;;;;;;;0.40;0.40;;;5.10;92.70;;;;;;5032963;28;20108;-73
2022/04/05 03:49:51;;;;;;;1.95;1.85;;;5.10;92.90;;;;;;5031840;28;20108;-74
2022/04/05 03:52:17;;;;;;;3.10;1.88;;;5.20;92.90;;;;;;5033295;28;20105;-73
2022/04/05 03:54:43;;;;;;;0.20;0.20;;;5.30;92.90;;;;;;5015920;28;20044;-71
2022/04/05 03:57:09;;;;;;;0.93;0.88;;;5.10;93.00;;;;;;5033043;28;20040;-71
2022/04/05 03:59:34;;;;;;;0.30;0.30;;;5.20;93.40;;;;;;5031760;28;20084;-71
2022/04/05 04:02:00;;;;;;;0.85;0.73;;;5.20;93.50;;;;;;5031707;28;20022;-71
2022/04/05 04:04:26;;;;;;;0.50;0.50;;;5.10;93.40;;;;;;5032783;28;20369;-71
2022/04/05 04:06:51;;;;;;;8.55;4.28;;;5.20;93.80;;;;;;5031314;28;20033;-71
2022/04/05 04:09:17;;;;;;;0.75;0.75;;;5.20;93.90;;;;;;5032668;28;20053;-72
2022/04/05 04:11:44;;;;;;;0.98;0.98;;;5.30;93.90;;;;;;5031779;28;20029;-72
2022/04/05 04:14:11;;;;;;;3.03;1.77;;;5.30;93.90;;;;;;5032654;28;20030;-72
2022/04/05 04:16:36;;;;;;;0.40;0.40;;;5.30;93.10;;;;;;5032347;28;20022;-71
2022/04/05 04:19:03;;;;;;;3.70;1.75;;;5.30;92.90;;;;;;5032773;28;20041;-72
2022/04/05 04:21:28;;;;;;;1.60;1.25;;;5.40;92.90;;;;;;5032717;28;20028;-72
2022/04/05 04:23:54;;;;;;;2.88;1.90;;;5.30;92.40;;;;;;5032677;28;20469;-72
2022/04/05 04:26:20;;;;;;;2.28;1.42;;;5.30;92.30;;;;;;5032569;28;20052;-72
2022/04/05 04:28:49;;;;;;;0.35;0.35;;;5.40;92.10;;;;;;5032583;28;20022;-72
2022/04/05 04:31:15;;;;;;;0.60;0.60;;;5.40;92.20;;;;;;5031620;28;20048;-72
2022/04/05 04:33:41;;;;;;;1.70;0.63;;;5.50;92.10;;;;;;5031423;28;20034;-72
2022/04/05 04:36:07;;;;;;;13.90;0.93;;;5.50;92.00;;;;;;5032119;28;20033;-71
2022/04/05 04:38:32;;;;;;;11.30;1.77;;;5.40;91.80;;;;;;5032476;28;20029;-72
2022/04/05 04:40:58;;;;;;;0.47;0.47;;;5.40;91.80;;;;;;5031182;28;20091;-71
2022/04/05 04:43:24;;;;;;;0.20;0.20;;;5.40;91.90;;;;;;5032368;28;20083;-71
2022/04/05 04:45:50;;;;;;;0.93;0.88;;;5.40;92.00;;;;;;5032168;28;20029;-72
2022/04/05 04:48:17;;;;;;;0.30;0.30;;;5.40;92.00;;;;;;5032388;28;20033;-71
2022/04/05 04:50:42;;;;;;;12.07;1.58;;;5.40;92.00;;;;;;5032210;28;20128;-71
2022/04/05 04:53:08;;;;;;;13.52;1.67;;;5.40;92.00;;;;;;5032189;28;20056;-72
2022/04/05 04:55:34;;;;;;;2.42;1.40;;;5.40;92.10;;;;;;5031875;28;20033;-72
2022/04/05 04:57:59;;;;;;;3.38;2.22;;;5.40;92.30;;;;;;5030938;28;20397;-72
2022/04/05 05:00:25;;;;;;;1.17;0.73;;;5.30;92.70;;;;;;5032328;28;20025;-71
2022/04/05 05:02:51;;;;;;;0.90;0.90;;;5.40;93.50;;;;;;5032322;28;20359;-72
2022/04/05 05:05:21;;;;;;;1.20;1.20;;;5.40;93.30;;;;;;5030770;28;20539;-72
2022/04/05 05:07:48;;;;;;;2.50;2.30;;;5.40;93.30;;;;;;5032069;28;20025;-71
2022/04/05 05:10:15;;;;;;;3.33;2.17;;;5.30;93.20;;;;;;5031986;28;20032;-71
2022/04/05 05:12:41;;;;;;;1.38;1.27;;;5.30;93.30;;;;;;5031889;28;20025;-71
2022/04/05 05:15:17;;;;;;;2.80;1.92;;;5.30;92.90;;;;;;5031801;28;20026;-71
2022/04/05 05:17:44;;;;;;;2.33;1.45;;;5.30;92.80;;;;;;5033898;28;20104;-72
2022/04/05 05:20:11;;;;;;;1.98;1.50;;;5.30;92.80;;;;;;5035790;28;20025;-72
2022/04/05 05:22:36;;;;;;;1.38;0.63;;;5.30;93.10;;;;;;5034857;28;20030;-72
2022/04/05 05:25:03;;;;;;;1.42;0.95;;;5.40;93.10;;;;;;5035723;28;20018;-72
2022/04/05 05:27:29;;;;;;;0.95;0.95;;;5.30;93.10;;;;;;5035777;28;20553;-72
2022/04/05 05:29:54;;;;;;;1.75;1.50;;;5.40;93.20;;;;;;5036081;28;20100;-72
2022/04/05 05:32:20;;;;;;;2.78;2.08;;;5.40;92.70;;;;;;5034655;28;20056;-71
2022/04/05 05:34:46;;;;;;;1.55;0.75;;;5.40;92.90;;;;;;5033196;28;20051;-72
2022/04/05 05:37:12;;;;;;;0.90;0.88;;;5.30;93.40;;;;;;5034530;28;20029;-71
2022/04/05 05:39:38;;;;;;;0.30;0.30;;;5.40;93.50;;;;;;5043742;28;20104;-72
2022/04/05 05:42:05;;;;;;;0.88;0.80;;;5.40;93.60;;;;;;5035288;28;20462;-71
2022/04/05 05:44:32;;;;;;;0.60;0.57;;;5.40;93.70;;;;;;5039938;28;20473;-71
2022/04/05 05:46:58;;;;;;;2.30;1.42;;;5.40;93.80;;;;;;5050946;28;20032;-72
2022/04/05 05:49:24;;;;;;;2.40;1.08;;;5.40;94.20;;;;;;5036020;28;20021;-71
2022/04/05 05:51:50;;;;;;;3.92;2.17;;;5.40;94.70;;;;;;5055348;28;20036;-71
2022/04/05 05:54:16;;;;;;;0.30;0.30;;;5.40;94.70;;;;;;5046865;28;20037;-71
2022/04/05 05:56:42;;;;;;;3.13;1.75;;;5.30;95.10;;;;;;5035005;28;20469;-71
2022/04/05 05:59:09;;;;;;;0.25;0.25;;;5.30;95.50;;;;;;5034938;28;20025;-71
2022/04/05 06:01:34;;;;;;;0.20;0.20;;;5.30;96.20;;;;;;5035445;28;20028;-71
2022/04/05 06:04:00;;;;;;;0.55;0.50;;;5.40;96.80;;;;;;5034925;28;20026;-72
2022/04/05 06:06:28;;;;;;;0.40;0.40;;;5.40;97.30;;;;;;5034392;28;20120;-72
2022/04/05 06:08:55;;;;;;;0.82;0.82;;;5.40;97.40;;;;;;5035398;28;20488;-71
2022/04/05 06:11:25;;;;;;;0.40;0.40;;;5.20;97.70;;;;;;5035256;28;20116;-71
2022/04/05 06:13:51;;;;;;;0.90;0.38;;;5.20;98.10;;;;;;5034691;28;20033;-71
2022/04/05 06:16:18;;;;;;;0.20;0.20;;;5.20;98.90;;;;;;5042119;28;20028;-71
2022/04/05 06:18:47;;;;;;;2.35;2.15;;;5.30;99.10;;;;;;5034940;28;20042;-71
2022/04/05 06:21:14;;;;;;;0.20;0.20;;;5.30;99.90;;;;;;5034567;28;20028;-71
2022/04/05 06:23:41;;;;;;;0.65;0.65;;;5.30;99.90;;;;;;5041804;28;20045;-72
2022/04/05 06:26:06;;;;;;;1.17;0.90;;;5.20;99.90;;;;;;5038918;28;20065;-72
2022/04/05 06:28:32;;;;;;;0.20;0.20;;;5.20;99.90;;;;;;5033069;28;20057;-71
2022/04/05 06:30:58;;;;;;;3.72;1.20;;;5.10;99.90;;;;;;5034207;28;20071;-72
2022/04/05 06:33:24;;;;;;;4.32;3.95;;;5.10;99.90;;;;;;5052606;28;20029;-72
2022/04/05 06:35:53;;;;;;;0.60;0.52;;;5.10;99.90;;;;;;5044344;28;20033;-72
2022/04/05 06:38:19;;;;;;;0.60;0.45;;;5.00;99.90;;;;;;5045673;28;20025;-72
2022/04/05 06:40:45;;;;;;;0.20;0.20;;;5.00;99.90;;;;;;5041002;28;20024;-72
2022/04/05 06:43:12;;;;;;;0.20;0.20;;;5.00;99.90;;;;;;5034245;28;20045;-72
2022/04/05 06:45:38;;;;;;;0.30;0.30;;;5.10;99.90;;;;;;5033684;28;20022;-73
2022/04/05 06:48:14;;;;;;;0.95;0.93;;;5.10;99.90;;;;;;5034634;28;20025;-70
2022/04/05 06:50:40;;;;;;;0.35;0.35;;;5.20;99.90;;;;;;5035309;28;20425;-73
2022/04/05 06:53:08;;;;;;;1.58;1.05;;;5.30;99.90;;;;;;5044240;28;20384;-73
2022/04/05 06:55:34;;;;;;;0.40;0.40;;;5.40;99.90;;;;;;5047442;28;20029;-73
2022/04/05 06:58:00;;;;;;;0.20;0.20;;;5.30;99.90;;;;;;5036098;28;20278;-74
2022/04/05 07:00:51;;;;;;;0.35;0.35;;;5.20;99.90;;;;;;5035472;28;20033;-73
2022/04/05 07:03:19;;;;;;;0.80;0.80;;;5.30;99.90;;;;;;5038230;28;20377;-74
2022/04/05 07:05:45;;;;;;;0.22;0.22;;;5.20;99.90;;;;;;5034550;28;20025;-74
2022/04/05 07:08:11;;;;;;;0.20;0.20;;;5.10;99.90;;;;;;5034687;28;20028;-74
2022/04/05 07:10:37;;;;;;;0.32;0.32;;;5.10;99.90;;;;;;5017094;28;20036;-74
2022/04/05 07:13:04;;;;;;;0.38;0.38;;;5.10;99.90;;;;;;5044285;28;20030;-74
2022/04/05 07:15:30;;;;;;;0.40;0.40;;;4.90;99.90;;;;;;5036858;28;20125;-74
2022/04/05 07:17:55;;;;;;;0.30;0.30;;;4.80;99.90;;;;;;5034742;28;20443;-73
2022/04/05 07:20:21;;;;;;;0.38;0.38;;;5.00;99.90;;;;;;5034538;28;20032;-74
2022/04/05 07:22:49;;;;;;;0.30;0.30;;;4.90;99.90;;;;;;5033787;28;20393;-74
2022/04/05 07:25:22;;;;;;;2.70;0.80;;;4.80;99.90;;;;;;5032625;28;20108;-73
2022/04/05 07:27:48;;;;;;;1.38;0.73;;;4.70;99.90;;;;;;5016776;28;20022;-74
2022/04/05 07:30:15;;;;;;;0.30;0.30;;;4.80;99.90;;;;;;5034709;28;20025;-73
2022/04/05 07:32:43;;;;;;;0.30;0.30;;;4.80;99.90;;;;;;5028237;28;20045;-75
2022/04/05 07:35:10;;;;;;;4.85;3.80;;;4.90;99.90;;;;;;5016625;28;20030;-74
2022/04/05 07:37:37;;;;;;;0.77;0.77;;;4.90;99.90;;;;;;5018965;28;20029;-73
2022/04/05 07:40:10;;;;;;;0.73;0.73;;;4.90;99.90;;;;;;5019662;28;20497;-73
2022/04/05 07:42:37;;;;;;;2.95;2.50;;;4.90;99.90;;;;;;5020257;28;20033;-73
2022/04/05 07:45:04;;;;;;;3.65;1.35;;;5.00;99.90;;;;;;5020495;28;20040;-73
2022/04/05 07:47:30;;;;;;;0.40;0.40;;;5.10;99.90;;;;;;5020301;28;20029;-72
2022/04/05 07:49:56;;;;;;;2.78;1.35;;;5.10;99.90;;;;;;5023548;28;20156;-71
2022/04/05 07:52:21;;;;;;;0.85;0.68;;;5.30;99.90;;;;;;5020111;28;20091;-74
2022/04/05 07:54:47;;;;;;;0.20;0.20;;;5.50;99.90;;;;;;5020981;28;20040;-73
2022/04/05 07:57:13;;;;;;;1.08;1.00;;;5.40;99.90;;;;;;5018269;28;20038;-74
2022/04/05 07:59:40;;;;;;;0.90;0.73;;;5.30;99.90;;;;;;5019616;28;20037;-73
2022/04/05 08:02:06;;;;;;;0.50;0.50;;;5.20;99.90;;;;;;5018796;28;20030;-75
2022/04/05 08:04:32;;;;;;;5.65;4.35;;;5.20;99.90;;;;;;5019269;28;20033;-74
2022/04/05 08:06:58;;;;;;;0.20;0.20;;;5.20;99.90;;;;;;5020654;28;20111;-74
2022/04/05 08:09:23;;;;;;;0.20;0.20;;;5.10;99.90;;;;;;5020259;28;20940;-74
2022/04/05 08:11:49;;;;;;;0.20;0.20;;;5.20;99.90;;;;;;5020091;28;20112;-74
2022/04/05 08:14:15;;;;;;;0.55;0.55;;;5.40;99.90;;;;;;5021904;28;20083;-74
2022/04/05 08:16:41;;;;;;;0.28;0.28;;;5.40;99.90;;;;;;5020982;28;20030;-74
2022/04/05 08:19:09;;;;;;;0.88;0.82;;;5.40;99.90;;;;;;5021971;28;20088;-74
2022/04/05 08:21:35;;;;;;;0.63;0.63;;;5.40;99.90;;;;;;5022124;28;20053;-74
2022/04/05 08:24:01;;;;;;;0.82;0.55;;;5.30;99.90;;;;;;5021812;28;20021;-74
2022/04/05 08:26:27;;;;;;;0.20;0.20;;;5.40;99.90;;;;;;5021294;28;20034;-73
2022/04/05 08:28:56;;;;;;;1.33;0.80;;;5.40;99.90;;;;;;5020142;28;20029;-73
2022/04/05 08:31:25;;;;;;;0.40;0.40;;;5.30;99.90;;;;;;5021308;28;20037;-73
2022/04/05 08:33:52;;;;;;;1.42;1.33;;;5.30;99.90;;;;;;5025125;28;20104;-73
2022/04/05 08:36:18;;;;;;;1.02;1.02;;;5.50;99.90;;;;;;5001013;28;20055;-74
2022/04/05 08:38:44;;;;;;;4.68;1.23;;;5.50;99.90;;;;;;5018700;28;20017;-73
2022/04/05 08:41:12;;;;;;;4.97;2.38;;;5.50;99.90;;;;;;5020474;28;21425;-74
2022/04/05 08:43:43;;;;;;;1.00;0.70;;;5.60;99.90;;;;;;5020099;28;20045;-73
2022/04/05 08:46:10;;;;;;;1.10;0.98;;;5.40;99.90;;;;;;5018819;28;20400;-74
2022/04/05 08:48:37;;;;;;;1.05;0.95;;;5.50;99.90;;;;;;5002008;28;20037;-74
2022/04/05 08:51:03;;;;;;;0.68;0.68;;;5.50;99.90;;;;;;5019618;28;20042;-73
2022/04/05 08:53:31;;;;;;;0.52;0.52;;;5.50;99.90;;;;;;5020319;28;20037;-73
2022/04/05 08:55:57;;;;;;;0.50;0.50;;;5.50;99.90;;;;;;5018882;28;20025;-73
2022/04/05 08:58:23;;;;;;;2.05;0.77;;;5.60;99.90;;;;;;5020759;28;20029;-75
2022/04/05 09:00:52;;;;;;;1.08;0.98;;;5.60;99.90;;;;;;5018849;28;20033;-74
2022/04/05 09:03:17;;;;;;;0.60;0.60;;;5.60;99.90;;;;;;5020332;28;20140;-74
2022/04/05 09:05:44;;;;;;;0.52;0.52;;;5.70;99.90;;;;;;5019593;28;20124;-74
2022/04/05 09:08:26;;;;;;;0.60;0.60;;;5.80;99.90;;;;;;5019972;28;20493;-75
2022/04/05 09:11:12;;;;;;;1.83;1.38;;;5.80;99.90;;;;;;5021342;28;20037;-74
2022/04/05 09:13:38;;;;;;;0.77;0.77;;;5.90;99.90;;;;;;5018854;28;20050;-74
2022/04/05 09:16:08;;;;;;;1.30;1.20;;;6.00;99.90;;;;;;5020669;28;20033;-74
2022/04/05 09:18:34;;;;;;;0.88;0.75;;;6.00;99.90;;;;;;5020366;28;20030;-73
2022/04/05 09:21:02;;;;;;;1.05;0.75;;;5.90;99.90;;;;;;5020233;28;20549;-74
2022/04/05 09:23:30;;;;;;;5.28;0.63;;;5.90;99.90;;;;;;5020719;28;20116;-74
2022/04/05 09:25:58;;;;;;;2.47;1.75;;;5.90;99.90;;;;;;5021496;28;20035;-75
2022/04/05 09:28:45;;;;;;;0.40;0.40;;;5.90;99.90;;;;;;5021011;28;20032;-74
2022/04/05 09:31:17;;;;;;;2.40;0.50;;;6.10;99.90;;;;;;5021414;28;20319;-74
2022/04/05 09:34:03;;;;;;;1.67;1.10;;;6.10;99.90;;;;;;5021203;28;20044;-74
2022/04/05 09:36:38;;;;;;;0.52;0.52;;;6.10;99.90;;;;;;5024229;28;20034;-72
2022/04/05 09:39:16;;;;;;;0.30;0.30;;;6.10;99.90;;;;;;5023346;28;20519;-71
2022/04/05 09:41:43;;;;;;;0.50;0.50;;;6.00;99.90;;;;;;5024080;28;20049;-71
2022/04/05 09:44:09;;;;;;;0.38;0.38;;;6.00;99.90;;;;;;5023807;28;20032;-72
2022/04/05 09:46:36;;;;;;;0.57;0.57;;;6.10;99.90;;;;;;5024113;28;20048;-72
2022/04/05 09:49:05;;;;;;;0.55;0.55;;;6.20;99.90;;;;;;5024183;28;20033;-71
2022/04/05 09:51:44;;;;;;;1.00;0.82;;;6.20;99.90;;;;;;5023547;28;20451;-72
2022/04/05 09:54:27;;;;;;;1.27;1.10;;;6.20;99.90;;;;;;5023746;28;20488;-71
2022/04/05 09:57:07;;;;;;;0.30;0.30;;;6.30;99.90;;;;;;5025518;28;20040;-71
2022/04/05 09:59:42;;;;;;;0.50;0.50;;;6.40;99.90;;;;;;5021947;28;20512;-71
2022/04/05 10:02:17;;;;;;;1.13;1.02;;;6.30;99.90;;;;;;5023349;28;20499;-71
2022/04/05 10:05:07;;;;;;;0.30;0.30;;;6.30;99.90;;;;;;5029727;28;20788;-70
2022/04/05 10:07:34;;;;;;;0.20;0.20;;;6.50;99.90;;;;;;5031997;28;20429;-70
2022/04/05 10:10:06;;;;;;;0.28;0.28;;;6.50;99.90;;;;;;5031762;28;20501;-70
2022/04/05 10:12:32;;;;;;;0.20;0.20;;;6.50;99.90;;;;;;5031757;28;20025;-70
2022/04/05 10:14:59;;;;;;;0.20;0.20;;;6.60;99.90;;;;;;5029870;28;20036;-70
2022/04/05 10:17:27;;;;;;;0.10;0.10;;;6.70;99.90;;;;;;5031683;28;20025;-69
2022/04/05 10:19:55;;;;;;;0.75;0.52;;;6.70;99.90;;;;;;5030080;28;20500;-70
2022/04/05 10:22:22;;;;;;;1.90;1.45;;;6.70;99.90;;;;;;5031652;28;20036;-70
2022/04/05 10:24:53;;;;;;;0.30;0.30;;;6.60;99.90;;;;;;5031429;28;20643;-69
2022/04/05 10:27:25;;;;;;;0.20;0.20;;;6.70;99.90;;;;;;5031377;28;20694;-70
2022/04/05 10:30:01;;;;;;;1.55;0.55;;;6.80;99.90;;;;;;5030247;28;20025;-70
2022/04/05 10:32:59;;;;;;;0.63;0.63;;;6.90;99.90;;;;;;5031436;28;20064;-70
2022/04/05 10:35:25;;;;;;;0.47;0.47;;;7.00;99.90;;;;;;5027864;28;20065;-70
2022/04/05 10:38:09;;;;;;;0.65;0.65;;;7.10;99.90;;;;;;5029900;28;20396;-69
2022/04/05 10:40:35;;;;;;;5.32;5.03;;;7.10;99.90;;;;;;5030953;28;20087;-70
2022/04/05 10:43:19;;;;;;;2.83;1.30;;;7.10;99.90;;;;;;5031074;28;20819;-70
2022/04/05 10:45:45;;;;;;;1.05;0.65;;;7.10;99.90;;;;;;5030850;28;20040;-70
2022/04/05 10:48:16;;;;;;;0.47;0.47;;;7.00;99.90;;;;;;5031317;28;20435;-70
2022/04/05 10:51:01;;;;;;;0.20;0.20;;;7.10;99.90;;;;;;5029794;28;20036;-69
2022/04/05 10:53:35;;;;;;;0.30;0.30;;;7.00;99.90;;;;;;5029706;28;20036;-70
2022/04/05 10:56:03;;;;;;;0.32;0.32;;;7.10;99.90;;;;;;5031221;28;20033;-70
2022/04/05 10:58:35;;;;;;;0.20;0.20;;;7.10;99.90;;;;;;5028957;28;20038;-70
2022/04/05 11:01:39;;;;;;;0.20;0.20;;;7.10;99.90;;;;;;5031087;28;20388;-70
2022/04/05 11:04:18;;;;;;;0.43;0.43;;;7.10;99.90;;;;;;5011605;28;20061;-70
2022/04/05 11:07:02;;;;;;;0.30;0.30;;;7.10;99.90;;;;;;5030734;28;20039;-70
2022/04/05 11:09:30;;;;;;;0.10;0.10;;;7.20;99.90;;;;;;5029837;28;20034;-70
2022/04/05 11:11:56;;;;;;;0.30;0.30;;;7.30;99.90;;;;;;5025373;28;20560;-69
2022/04/05 11:14:38;;;;;;;0.30;0.30;;;7.30;99.90;;;;;;5020356;28;20040;-72
2022/04/05 11:17:06;;;;;;;0.52;0.52;;;7.40;99.90;;;;;;5027616;28;20060;-71
2022/04/05 11:19:36;;;;;;;0.57;0.57;;;7.50;99.90;;;;;;5030551;28;20103;-71
2022/04/05 11:22:23;;;;;;;6.35;1.25;;;7.50;99.90;;;;;;5012672;28;20052;-70
2022/04/05 11:25:05;;;;;;;0.65;0.65;;;7.50;99.90;;;;;;5011672;28;20448;-71
2022/04/05 11:27:35;;;;;;;;;;;7.60;99.90;;;;;;5012021;28;20053;-71
2022/04/05 11:30:25;;;;;;;6.13;1.40;;;7.70;99.90;;;;;;5029997;28;19963;-72
2022/04/05 11:33:09;;;;;;;0.47;0.47;;;7.80;99.90;;;;;;5030364;28;20029;-71
2022/04/05 11:35:56;;;;;;;0.30;0.30;;;7.80;99.90;;;;;;5026603;28;20037;-71
2022/04/05 11:38:22;;;;;;;0.93;0.52;;;7.90;99.90;;;;;;5027211;28;20039;-72
2022/04/05 11:41:00;;;;;;;0.30;0.30;;;7.90;99.90;;;;;;5026662;28;20026;-71
2022/04/05 11:43:30;;;;;;;0.10;0.10;;;7.90;99.90;;;;;;5024495;28;20045;-72
2022/04/05 11:46:04;;;;;;;0.52;0.52;;;7.90;99.90;;;;;;5009090;28;20025;-71
2022/04/05 11:48:31;;;;;;;0.20;0.20;;;7.80;99.90;;;;;;5024860;28;20040;-72
2022/04/05 11:51:05;;;;;;;0.22;0.22;;;7.80;99.90;;;;;;5025622;28;20037;-72
2022/04/05 11:53:31;;;;;;;0.43;0.30;;;7.80;99.90;;;;;;5027005;28;20500;-71
2022/04/05 11:56:20;;;;;;;0.45;0.45;;;7.70;99.90;;;;;;5026044;28;20386;-72
2022/04/05 11:59:05;;;;;;;0.90;0.52;;;7.80;99.90;;;;;;5025152;28;20095;-71
2022/04/05 12:01:35;;;;;;;0.10;0.10;;;7.70;99.90;;;;;;5024154;28;20115;-72
2022/04/05 12:04:06;;;;;;;0.20;0.20;;;7.70;99.90;;;;;;5025462;28;20083;-71
2022/04/05 12:06:34;;;;;;;0.40;0.40;;;7.80;99.90;;;;;;5024106;28;20021;-72
2022/04/05 12:09:18;;;;;;;0.05;0.05;;;7.70;99.90;;;;;;5025854;28;20715;-72
2022/04/05 12:11:47;;;;;;;0.30;0.30;;;7.90;99.90;;;;;;5025863;28;20037;-71
2022/04/05 12:14:18;;;;;;;0.17;0.17;;;7.80;99.90;;;;;;5025850;28;20084;-71
2022/04/05 12:17:00;;;;;;;0.00;0.00;;;7.90;99.90;;;;;;5025584;28;20034;-72
2022/04/05 12:19:41;;;;;;;0.10;0.10;;;7.90;99.90;;;;;;5024576;28;20042;-72
2022/04/05 12:22:12;;;;;;;0.47;0.47;;;7.90;99.90;;;;;;5026925;28;20044;-70
2022/04/05 12:24:50;;;;;;;0.10;0.10;;;8.10;99.90;;;;;;5028298;28;20022;-71
2022/04/05 12:27:19;;;;;;;0.15;0.15;;;8.10;99.90;;;;;;5024874;28;20061;-73
2022/04/05 12:29:45;;;;;;;0.40;0.40;;;8.20;99.90;;;;;;5028409;28;20026;-73
2022/04/05 12:32:13;;;;;;;0.10;0.10;;;8.30;99.90;;;;;;5011776;28;20485;-73
2022/04/05 12:34:39;;;;;;;0.20;0.20;;;8.30;99.90;;;;;;5027931;28;20033;-73
2022/04/05 12:37:08;;;;;;;0.10;0.10;;;8.40;99.90;;;;;;5029269;28;20068;-73
2022/04/05 12:39:42;;;;;;;0.10;0.10;;;8.40;99.90;;;;;;5029455;28;20045;-74
2022/04/05 12:42:09;;;;;;;0.68;0.65;;;8.40;99.90;;;;;;5026807;28;20033;-74
2022/04/05 12:44:43;;;;;;;0.10;0.10;;;8.40;99.90;;;;;;5020908;28;20029;-74
2022/04/05 12:47:16;;;;;;;0.10;0.10;;;8.40;99.90;;;;;;5019635;28;20034;-75
2022/04/05 12:49:44;;;;;;;0.15;0.15;;;8.50;99.90;;;;;;5021225;28;20033;-75
2022/04/05 12:52:17;;;;;;;0.28;0.28;;;8.50;99.90;;;;;;5021298;28;20029;-74
2022/04/05 12:54:57;;;;;;;0.10;0.10;;;8.40;99.90;;;;;;5021498;28;20042;-75
2022/04/05 12:57:33;;;;;;;0.20;0.20;;;8.40;99.90;;;;;;5027428;28;20048;-73
2022/04/05 13:00:18;;;;;;;0.22;0.22;;;8.50;99.90;;;;;;5029550;28;20025;-74
2022/04/05 13:02:56;;;;;;;0.17;0.17;;;8.40;99.90;;;;;;5028562;28;20026;-74
2022/04/05 13:08:41;;;;;;;0.10;0.10;;;8.40;99.90;;;;;;5029094;28;20075;-73
2022/04/05 13:11:25;;;;;;;0.10;0.10;;;8.50;99.90;;;;;;5028638;28;20116;-73